Terminal Aerodrome Forecast
Issued by NWS Indianapolis, IN

Home | Current Version | Previous Version | Text Only | Print | Product List | Glossary On
Versions: 1 2 3 4 5 6 7 8 9 10 11 12 13 14 15 16 17 18 19 20 21 22 23 24 25 26 27 28 29
000
FTUS43 KIND 231600 AAA
TAFIND
TAF AMD
KIND 231610Z 2316/2418 15009KT P6SM BKN050 OVC100
      TEMPO 2316/2318 3SM -SHRA BKN015 OVC035
     FM231900 13011KT 4SM -RA BR OVC018
     FM232200 14012KT 3SM RA BR OVC007
     FM240200 19015G22KT 3SM RA BR OVC006
     FM241300 25020G32KT 5SM -SHRA OVC015=

USA.gov is the U.S. government's official web portal to all federal, state and local government web resources and services.